createdAt,value
2023-08-03T00:00:38.709Z,2.92
2023-08-03T00:03:06.405Z,3.50
2023-08-03T00:05:32.871Z,3.25
2023-08-03T00:07:59.200Z,3.00
2023-08-03T00:10:25.600Z,2.90
2023-08-03T00:12:52.040Z,3.13
2023-08-03T00:15:18.650Z,3.30
2023-08-03T00:17:45.522Z,3.30
2023-08-03T00:20:11.991Z,3.25
2023-08-03T00:22:38.441Z,3.37
2023-08-03T00:25:05.156Z,3.50
2023-08-03T00:27:31.583Z,4.18
2023-08-03T00:29:58.002Z,4.78
2023-08-03T00:32:24.423Z,4.82
2023-08-03T00:34:50.705Z,5.67
2023-08-03T00:37:17.004Z,4.60
2023-08-03T00:39:43.338Z,4.40
2023-08-03T00:42:10.204Z,4.75
2023-08-03T00:44:36.726Z,4.88
2023-08-03T00:47:03.185Z,4.70
2023-08-03T00:49:29.504Z,4.70
2023-08-03T00:51:56.188Z,4.32
2023-08-03T00:54:22.752Z,4.47
2023-08-03T00:56:49.301Z,4.50
2023-08-03T00:59:15.848Z,4.77
2023-08-03T01:01:42.752Z,4.80
2023-08-03T01:04:09.492Z,4.82
2023-08-03T01:06:35.820Z,5.03
2023-08-03T01:09:02.211Z,4.60
2023-08-03T01:11:31.746Z,4.53
2023-08-03T01:13:59.330Z,4.80
2023-08-03T01:16:26.239Z,4.75
2023-08-03T01:18:52.810Z,4.45
2023-08-03T01:21:20.192Z,4.18
2023-08-03T01:23:46.737Z,4.20
2023-08-03T01:26:13.119Z,4.45
2023-08-03T01:28:39.422Z,4.13
2023-08-03T01:31:05.864Z,4.70
2023-08-03T01:33:32.413Z,5.10
2023-08-03T01:35:59.292Z,4.50
2023-08-03T01:38:25.664Z,4.63
2023-08-03T01:40:52.161Z,5.00
2023-08-03T01:43:18.464Z,5.50
2023-08-03T01:45:44.825Z,6.93
2023-08-03T01:48:11.077Z,8.37
2023-08-03T01:50:37.435Z,9.35
2023-08-03T01:53:03.720Z,10.05
2023-08-03T01:55:30.003Z,9.50
2023-08-03T01:57:56.316Z,9.68
2023-08-03T02:00:22.581Z,9.13
2023-08-03T02:02:48.965Z,9.50
2023-08-03T02:05:15.364Z,9.57
2023-08-03T02:07:43.054Z,10.48
2023-08-03T02:10:10.507Z,9.85
2023-08-03T02:12:36.819Z,9.97
2023-08-03T02:15:04.775Z,10.73
2023-08-03T02:17:31.074Z,10.40
2023-08-03T02:19:57.497Z,11.15
2023-08-03T02:22:23.862Z,11.20
2023-08-03T02:24:50.209Z,10.30
2023-08-03T02:27:16.520Z,9.98
2023-08-03T02:29:42.827Z,8.15
2023-08-03T02:32:09.237Z,9.52
2023-08-03T02:34:35.544Z,8.27
2023-08-03T02:37:01.971Z,9.17
2023-08-03T02:39:28.357Z,8.88
2023-08-03T02:41:54.713Z,7.55
2023-08-03T02:44:21.081Z,6.90
2023-08-03T02:46:47.390Z,6.13
2023-08-03T02:49:13.675Z,5.93
2023-08-03T02:51:40.005Z,4.72
2023-08-03T02:54:06.296Z,4.80
2023-08-03T02:56:32.587Z,4.13
2023-08-03T02:58:58.890Z,3.95
2023-08-03T03:01:25.322Z,3.87
2023-08-03T03:03:51.765Z,3.13
2023-08-03T03:06:18.187Z,2.65
2023-08-03T03:08:44.485Z,2.50
2023-08-03T03:11:10.779Z,2.50
2023-08-03T03:13:37.141Z,2.30
2023-08-03T03:16:03.612Z,2.10
2023-08-03T03:18:29.945Z,2.10
2023-08-03T03:20:56.289Z,2.15
2023-08-03T03:23:22.641Z,2.10
2023-08-03T03:25:48.973Z,2.00
2023-08-03T03:28:15.302Z,2.20
2023-08-03T03:30:41.667Z,2.15
2023-08-03T03:33:08.043Z,2.50
2023-08-03T03:35:34.393Z,2.25
2023-08-03T03:38:00.776Z,2.40
2023-08-03T03:40:27.064Z,2.80
2023-08-03T03:42:53.568Z,2.70
2023-08-03T03:45:19.915Z,2.67
2023-08-03T03:47:46.329Z,2.97
2023-08-03T03:50:12.845Z,2.67
2023-08-03T03:52:39.251Z,2.70
2023-08-03T03:55:05.835Z,2.80
2023-08-03T03:57:32.110Z,2.40
2023-08-03T03:59:58.429Z,2.72
2023-08-03T04:02:25.524Z,2.70
2023-08-03T04:04:51.836Z,2.53
2023-08-03T04:07:18.069Z,2.40
2023-08-03T04:09:44.321Z,2.28
2023-08-03T04:12:10.632Z,2.55
2023-08-03T04:14:36.946Z,2.70
2023-08-03T04:17:03.277Z,2.83
2023-08-03T04:19:29.588Z,2.70
2023-08-03T04:21:55.959Z,2.72
2023-08-03T04:24:22.465Z,3.00
2023-08-03T04:26:48.746Z,2.70
2023-08-03T04:29:15.115Z,2.42
2023-08-03T04:31:41.612Z,2.80
2023-08-03T04:34:08.096Z,2.70
2023-08-03T04:36:34.407Z,3.03
2023-08-03T04:39:00.681Z,2.50
2023-08-03T04:41:26.965Z,2.65
2023-08-03T04:43:53.290Z,2.53
2023-08-03T04:46:19.657Z,2.42
2023-08-03T04:48:45.946Z,2.70
2023-08-03T04:51:12.297Z,2.70
2023-08-03T04:53:38.648Z,3.10
2023-08-03T04:56:04.918Z,2.60
2023-08-03T04:58:31.295Z,2.60
2023-08-03T05:00:57.690Z,2.70
2023-08-03T05:03:24.105Z,2.73
2023-08-03T05:05:50.381Z,2.60
2023-08-03T05:08:16.671Z,2.83
2023-08-03T05:10:42.952Z,2.80
2023-08-03T05:13:09.268Z,3.30
2023-08-03T05:15:35.598Z,2.80
2023-08-03T05:18:01.995Z,2.88
2023-08-03T05:20:28.679Z,2.78
2023-08-03T05:22:55.186Z,2.30
2023-08-03T05:25:21.573Z,2.38
2023-08-03T05:27:47.911Z,2.70
2023-08-03T05:30:14.199Z,2.47
2023-08-03T05:32:40.671Z,2.40
2023-08-03T05:35:07.260Z,2.67
2023-08-03T05:37:33.600Z,2.28
2023-08-03T05:40:02.283Z,2.33
2023-08-03T05:42:31.590Z,2.40
2023-08-03T05:44:57.933Z,2.30
2023-08-03T05:47:24.376Z,2.40
2023-08-03T05:49:50.724Z,2.40
2023-08-03T05:52:17.224Z,2.43
2023-08-03T05:54:45.826Z,2.20
2023-08-03T05:57:13.810Z,2.47
2023-08-03T05:59:40.383Z,1.98
2023-08-03T06:02:14.794Z,1.98
2023-08-03T06:04:41.667Z,2.10
2023-08-03T06:07:08.733Z,2.88
2023-08-03T06:09:35.085Z,2.30
2023-08-03T06:12:01.485Z,2.67
2023-08-03T06:14:27.890Z,2.33
2023-08-03T06:16:54.259Z,2.53
2023-08-03T06:19:20.617Z,2.25
2023-08-03T06:21:47.119Z,2.60
2023-08-03T06:24:13.993Z,2.50
2023-08-03T06:26:40.298Z,2.30
2023-08-03T06:29:06.676Z,2.40
2023-08-03T06:31:37.306Z,2.78
2023-08-03T06:34:03.834Z,3.00
2023-08-03T06:36:30.221Z,3.13
2023-08-03T06:38:57.186Z,4.18
2023-08-03T06:41:26.990Z,4.30
2023-08-03T06:43:54.672Z,3.20
2023-08-03T06:46:21.071Z,2.08
2023-08-03T06:48:47.716Z,2.50
2023-08-03T06:51:14.108Z,3.90
2023-08-03T06:53:40.443Z,3.10
2023-08-03T06:56:06.731Z,2.65
2023-08-03T06:58:33.048Z,2.67
2023-08-03T07:00:59.766Z,2.63
2023-08-03T07:03:26.217Z,2.58
2023-08-03T07:05:52.591Z,3.20
2023-08-03T07:08:18.907Z,3.58
2023-08-03T07:10:45.157Z,2.70
2023-08-03T07:13:11.624Z,2.78
2023-08-03T07:15:37.935Z,4.30
2023-08-03T07:18:05.720Z,3.20
2023-08-03T07:20:32.111Z,3.20
2023-08-03T07:22:58.912Z,2.95
2023-08-03T07:25:25.414Z,3.40
2023-08-03T07:27:52.387Z,2.20
2023-08-03T07:30:18.886Z,4.37
2023-08-03T07:32:45.266Z,3.28
2023-08-03T07:35:11.731Z,4.10
2023-08-03T07:37:38.143Z,4.50
2023-08-03T07:40:04.787Z,3.90
2023-08-03T07:42:31.083Z,5.07
2023-08-03T07:44:57.515Z,3.45
2023-08-03T07:47:23.810Z,3.40
2023-08-03T07:49:50.133Z,3.00
2023-08-03T07:52:16.474Z,2.92
2023-08-03T07:54:42.765Z,3.33
2023-08-03T07:57:09.177Z,5.47
2023-08-03T07:59:35.484Z,8.27
2023-08-03T08:02:01.968Z,3.97
2023-08-03T08:04:28.243Z,3.80
2023-08-03T08:06:54.519Z,3.80
2023-08-03T08:09:20.835Z,3.55
2023-08-03T08:11:47.463Z,6.85
2023-08-03T08:14:14.228Z,7.30
2023-08-03T08:16:40.597Z,8.55
2023-08-03T08:19:07.126Z,5.73
2023-08-03T08:21:33.535Z,5.13
2023-08-03T08:23:59.958Z,5.50
2023-08-03T08:26:26.464Z,7.18
2023-08-03T08:29:03.456Z,8.07
2023-08-03T08:31:45.022Z,8.37
2023-08-03T08:34:19.093Z,8.93
2023-08-03T08:36:45.629Z,9.23
2023-08-03T08:39:12.198Z,8.45
2023-08-03T08:41:39.533Z,8.07
2023-08-03T08:44:06.038Z,8.80
2023-08-03T08:46:32.410Z,9.98
2023-08-03T08:48:59.206Z,8.05
2023-08-03T09:01:24.509Z,5.97
2023-08-03T09:08:51.334Z,6.77
2023-08-03T09:11:17.849Z,8.27
2023-08-03T09:13:46.495Z,6.93
2023-08-03T09:16:22.822Z,8.52
2023-08-03T09:18:49.133Z,8.25
2023-08-03T09:28:53.795Z,7.00
2023-08-03T09:33:57.581Z,6.30
2023-08-03T09:38:53.218Z,6.65
2023-08-03T09:44:08.402Z,5.43
2023-08-03T09:46:35.286Z,6.07
2023-08-03T09:51:31.500Z,5.40
2023-08-03T09:56:32.820Z,3.40
2023-08-03T09:59:00.815Z,3.33
2023-08-03T10:01:27.989Z,3.20
2023-08-03T10:03:57.824Z,3.40
2023-08-03T10:06:27.081Z,3.47
2023-08-03T10:08:57.873Z,3.45
2023-08-03T10:14:36.624Z,2.90
2023-08-03T10:17:22.959Z,2.90
2023-08-03T10:23:10.440Z,2.97
2023-08-03T10:25:51.717Z,2.87
2023-08-03T10:28:18.095Z,2.70
2023-08-03T10:31:03.157Z,2.67
2023-08-03T10:33:55.446Z,2.70
2023-08-03T10:36:27.885Z,3.00
2023-08-03T10:39:03.588Z,3.00
2023-08-03T10:41:33.867Z,2.88
2023-08-03T10:44:06.222Z,3.13
2023-08-03T10:46:32.595Z,3.08
2023-08-03T10:48:59.069Z,3.50
2023-08-03T10:51:25.468Z,3.67
2023-08-03T10:53:52.095Z,4.05
2023-08-03T10:56:18.430Z,4.00
2023-08-03T10:58:45.487Z,4.00
2023-08-03T11:01:25.028Z,4.18
2023-08-03T11:03:51.695Z,4.33
2023-08-03T11:06:18.566Z,4.18
2023-08-03T11:08:45.496Z,4.00
2023-08-03T11:11:12.099Z,3.90
2023-08-03T11:13:39.784Z,3.88
2023-08-03T11:16:06.470Z,4.53
2023-08-03T11:18:34.809Z,3.80
2023-08-03T11:21:01.122Z,4.07
2023-08-03T11:23:30.658Z,3.92
2023-08-03T11:25:57.393Z,4.13
2023-08-03T11:28:23.811Z,4.00
2023-08-03T11:30:50.186Z,4.82
2023-08-03T11:33:16.710Z,4.88
2023-08-03T11:35:44.090Z,4.30
2023-08-03T11:38:10.558Z,4.47
2023-08-03T11:40:37.087Z,4.90
2023-08-03T11:43:06.388Z,4.60
2023-08-03T11:45:35.168Z,4.45
2023-08-03T11:48:01.505Z,4.57
2023-08-03T11:50:27.863Z,4.50
2023-08-03T11:53:13.241Z,4.40
2023-08-03T11:55:46.085Z,4.78
2023-08-03T11:58:13.069Z,4.35
2023-08-03T12:00:40.270Z,4.50
2023-08-03T12:03:07.236Z,5.22
2023-08-03T12:05:51.324Z,4.30
2023-08-03T12:08:21.702Z,4.50
2023-08-03T12:11:03.918Z,4.25
2023-08-03T12:13:30.494Z,4.10
2023-08-03T12:15:56.836Z,4.28
2023-08-03T12:18:23.491Z,4.70
2023-08-03T12:20:49.879Z,4.55
2023-08-03T12:23:16.806Z,5.13
2023-08-03T12:25:43.123Z,4.95
2023-08-03T12:28:10.481Z,5.90
2023-08-03T12:30:37.497Z,4.70
2023-08-03T12:33:03.974Z,4.15
2023-08-03T12:35:30.296Z,4.03
2023-08-03T12:37:58.374Z,4.50
2023-08-03T12:40:25.466Z,3.80
2023-08-03T12:42:51.823Z,4.00
2023-08-03T12:45:18.277Z,3.70
2023-08-03T12:47:51.877Z,3.60
2023-08-03T12:50:19.511Z,3.53
2023-08-03T12:52:45.960Z,3.80
2023-08-03T12:55:12.230Z,3.60
2023-08-03T12:57:38.509Z,3.45
2023-08-03T13:00:05.483Z,3.10
2023-08-03T13:02:34.213Z,3.53
2023-08-03T13:05:03.906Z,3.42
2023-08-03T13:07:32.890Z,3.17
2023-08-03T13:09:59.222Z,2.80
2023-08-03T13:12:27.315Z,3.30
2023-08-03T13:14:55.694Z,3.13
2023-08-03T13:17:22.092Z,3.00
2023-08-03T13:19:48.656Z,2.77
2023-08-03T13:22:14.992Z,3.40
2023-08-03T13:24:41.252Z,2.90
2023-08-03T13:27:17.199Z,2.92
2023-08-03T13:29:44.272Z,2.88
2023-08-03T13:32:10.685Z,3.20
2023-08-03T13:34:36.974Z,2.70
2023-08-03T13:37:03.457Z,2.45
2023-08-03T13:39:29.854Z,3.45
2023-08-03T13:41:56.104Z,3.70
2023-08-03T13:44:22.537Z,3.00
2023-08-03T13:46:49.265Z,2.90
2023-08-03T13:49:15.875Z,2.30
2023-08-03T13:51:42.307Z,2.83
2023-08-03T13:54:08.968Z,3.50
2023-08-03T13:56:35.341Z,2.60
2023-08-03T13:59:01.707Z,3.45
2023-08-03T14:03:57.497Z,2.63
2023-08-03T14:11:25.198Z,15.93
2023-08-03T14:18:49.914Z,4.22
2023-08-03T14:21:37.502Z,3.23
2023-08-03T14:24:03.152Z,2.40
2023-08-03T14:26:29.944Z,2.17
2023-08-03T14:31:25.712Z,2.30
2023-08-03T14:33:52.127Z,2.10
2023-08-03T14:36:18.708Z,2.30
2023-08-03T14:38:45.125Z,1.90
2023-08-03T14:41:12.407Z,1.90
2023-08-03T14:43:43.838Z,2.17
2023-08-03T14:46:11.394Z,1.80
2023-08-03T14:48:38.018Z,2.17
2023-08-03T14:51:04.754Z,2.50
2023-08-03T14:53:50.774Z,2.58
2023-08-03T14:58:49.973Z,2.33
2023-08-03T15:01:19.692Z,3.30
2023-08-03T15:03:46.464Z,2.65
2023-08-03T15:06:13.855Z,3.00
2023-08-03T15:08:40.207Z,2.60
2023-08-03T15:11:06.661Z,2.53
2023-08-03T15:13:32.982Z,2.70
2023-08-03T15:16:29.816Z,2.90
2023-08-03T15:18:57.196Z,2.70
2023-08-03T15:21:25.304Z,3.00
2023-08-03T15:23:53.598Z,2.73
2023-08-03T15:26:25.581Z,2.65
2023-08-03T15:28:58.570Z,2.50
2023-08-03T15:31:26.057Z,2.95
2023-08-03T15:33:53.793Z,2.67
2023-08-03T15:36:34.820Z,2.80
2023-08-03T15:39:04.178Z,2.63
2023-08-03T15:41:31.484Z,2.40
2023-08-03T15:46:29.941Z,2.67
2023-08-03T15:49:06.580Z,2.67
2023-08-03T15:51:46.142Z,2.65
2023-08-03T15:54:19.692Z,2.58
2023-08-03T15:56:47.258Z,2.92
2023-08-03T15:59:13.855Z,3.10
2023-08-03T16:01:40.235Z,2.30
2023-08-03T16:04:06.590Z,2.55
2023-08-03T16:06:32.914Z,2.70
2023-08-03T16:08:59.234Z,3.10
2023-08-03T16:11:39.841Z,3.58
2023-08-03T16:14:11.790Z,3.07
2023-08-03T16:16:38.224Z,3.00
2023-08-03T16:19:04.658Z,3.80
2023-08-03T16:21:30.970Z,2.70
2023-08-03T16:23:57.232Z,4.70
2023-08-03T16:26:23.517Z,2.60
2023-08-03T16:28:49.867Z,2.50
2023-08-03T16:31:17.725Z,2.30
2023-08-03T16:33:45.254Z,2.92
2023-08-03T16:36:15.809Z,2.47
2023-08-03T16:38:43.475Z,2.60
2023-08-03T16:41:09.783Z,2.60
2023-08-03T16:43:36.134Z,2.60
2023-08-03T16:46:02.553Z,2.80
2023-08-03T16:48:39.699Z,3.58
2023-08-03T16:51:07.256Z,3.57
2023-08-03T16:53:33.660Z,2.88
2023-08-03T16:55:59.927Z,2.40
2023-08-03T16:58:26.262Z,2.60
2023-08-03T17:00:52.948Z,2.60
2023-08-03T17:03:20.047Z,2.10
2023-08-03T17:05:46.492Z,4.40
2023-08-03T17:08:12.799Z,2.40
2023-08-03T17:10:39.152Z,2.10
2023-08-03T17:13:05.464Z,2.13
2023-08-03T17:15:31.824Z,1.83
2023-08-03T17:17:58.252Z,1.88
2023-08-03T17:20:24.746Z,2.10
2023-08-03T17:22:50.991Z,2.08
2023-08-03T17:25:17.277Z,2.08
2023-08-03T17:27:43.567Z,2.10
2023-08-03T17:30:10.093Z,2.20
2023-08-03T17:32:36.662Z,1.95
2023-08-03T17:35:02.963Z,1.90
2023-08-03T17:37:29.190Z,2.00
2023-08-03T17:39:55.546Z,2.20
2023-08-03T17:42:21.933Z,2.00
2023-08-03T17:44:48.269Z,2.45
2023-08-03T17:47:14.512Z,2.20
2023-08-03T17:49:40.853Z,2.03
2023-08-03T17:52:07.251Z,2.20
2023-08-03T17:54:37.087Z,2.20
2023-08-03T17:57:03.594Z,2.38
2023-08-03T17:59:30.207Z,2.30
2023-08-03T18:01:59.337Z,2.20
2023-08-03T18:04:25.787Z,2.30
2023-08-03T18:06:52.192Z,2.15
2023-08-03T18:09:18.519Z,2.30
2023-08-03T18:11:44.830Z,2.03
2023-08-03T18:14:11.125Z,2.30
2023-08-03T18:16:37.486Z,1.97
2023-08-03T18:19:03.847Z,2.40
2023-08-03T18:21:30.218Z,2.75
2023-08-03T18:23:56.867Z,2.63
2023-08-03T18:26:23.713Z,2.20
2023-08-03T18:28:49.987Z,2.40
2023-08-03T18:31:16.409Z,2.70
2023-08-03T18:33:43.227Z,2.55
2023-08-03T18:36:17.197Z,2.47
2023-08-03T18:38:44.060Z,2.60
2023-08-03T18:41:11.598Z,2.50
2023-08-03T18:43:38.650Z,2.40
2023-08-03T18:46:09.859Z,2.50
2023-08-03T18:48:36.373Z,2.67
2023-08-03T18:51:04.333Z,2.53
2023-08-03T18:53:31.398Z,2.70
2023-08-03T18:56:02.001Z,2.67
2023-08-03T18:58:28.800Z,2.70
2023-08-03T19:00:55.093Z,2.97
2023-08-03T19:03:21.471Z,2.88
2023-08-03T19:05:47.781Z,2.70
2023-08-03T19:08:14.013Z,2.80
2023-08-03T19:10:40.272Z,2.72
2023-08-03T19:13:06.614Z,2.70
2023-08-03T19:15:32.999Z,2.72
2023-08-03T19:17:59.495Z,2.80
2023-08-03T19:20:25.936Z,2.80
2023-08-03T19:22:52.198Z,2.42
2023-08-03T19:25:18.451Z,2.85
2023-08-03T19:27:44.767Z,2.90
2023-08-03T19:30:11.185Z,2.70
2023-08-03T19:32:37.679Z,2.85
2023-08-03T19:35:04.210Z,2.75
2023-08-03T19:37:30.481Z,2.83
2023-08-03T19:39:56.725Z,2.90
2023-08-03T19:42:23.019Z,2.70
2023-08-03T19:44:49.342Z,2.80
2023-08-03T19:47:15.637Z,2.85
2023-08-03T19:57:09.606Z,3.10
2023-08-03T19:59:36.070Z,3.28
2023-08-03T20:07:13.419Z,3.33
2023-08-03T20:09:40.307Z,3.00
2023-08-03T20:12:06.703Z,2.97
2023-08-03T20:19:31.492Z,3.23
2023-08-03T20:21:57.818Z,3.20
2023-08-03T20:24:24.089Z,3.92
2023-08-03T20:26:52.168Z,3.72
2023-08-03T20:29:21.444Z,4.50
2023-08-03T20:31:48.182Z,3.83
2023-08-03T20:34:14.452Z,4.00
2023-08-03T20:36:40.723Z,3.63
2023-08-03T20:49:04.025Z,3.28
2023-08-03T20:51:30.387Z,3.17
2023-08-03T20:53:56.760Z,3.50
2023-08-03T20:56:23.033Z,3.60
2023-08-03T20:58:50.443Z,4.20
2023-08-03T21:01:17.056Z,3.85
2023-08-03T21:03:43.470Z,4.03
2023-08-03T21:06:09.810Z,3.78
2023-08-03T21:08:36.171Z,4.37
2023-08-03T21:11:02.441Z,4.30
2023-08-03T21:13:29.697Z,4.22
2023-08-03T21:15:56.089Z,4.47
2023-08-03T21:20:51.663Z,4.27
2023-08-03T21:23:18.001Z,4.70
2023-08-03T21:25:44.323Z,4.88
2023-08-03T21:28:10.677Z,4.70
2023-08-03T21:30:37.093Z,4.60
2023-08-03T21:33:03.543Z,4.20
2023-08-03T21:35:30.022Z,4.65
2023-08-03T21:37:56.306Z,4.63
2023-08-03T21:40:22.670Z,4.53
2023-08-03T21:42:48.947Z,4.38
2023-08-03T21:45:15.283Z,4.53
2023-08-03T21:47:41.650Z,4.90
2023-08-03T21:50:08.169Z,4.10
2023-08-03T21:52:34.530Z,4.60
2023-08-03T21:55:00.858Z,4.70
2023-08-03T21:57:27.262Z,4.70
2023-08-03T21:59:53.628Z,4.63
2023-08-03T22:02:19.934Z,4.70
2023-08-03T22:04:46.160Z,4.70
2023-08-03T22:07:12.457Z,4.70
2023-08-03T22:09:38.714Z,4.53
2023-08-03T22:12:05.092Z,4.32
2023-08-03T22:14:31.406Z,4.47
2023-08-03T22:16:57.812Z,4.47
2023-08-03T22:19:24.119Z,4.50
2023-08-03T22:21:50.371Z,4.80
2023-08-03T22:24:16.658Z,4.70
2023-08-03T22:26:42.978Z,4.40
2023-08-03T22:29:09.267Z,4.60
2023-08-03T22:31:35.484Z,4.60
2023-08-03T22:34:01.862Z,5.07
2023-08-03T22:36:28.188Z,4.78
2023-08-03T22:38:54.422Z,4.63
2023-08-03T22:41:20.744Z,4.38
2023-08-03T22:43:47.099Z,4.53
2023-08-03T22:46:20.101Z,4.60
2023-08-03T22:48:46.654Z,4.50
2023-08-03T22:51:17.151Z,4.60
2023-08-03T22:53:44.390Z,4.20
2023-08-03T22:56:10.668Z,4.47
2023-08-03T22:58:36.915Z,4.47
2023-08-03T23:01:12.789Z,4.72
2023-08-03T23:03:39.142Z,4.25
2023-08-03T23:06:15.352Z,4.60
2023-08-03T23:08:41.668Z,4.82
2023-08-03T23:11:08.342Z,5.50
2023-08-03T23:13:35.472Z,5.05
2023-08-03T23:16:02.149Z,6.18
2023-08-03T23:18:29.125Z,5.38
2023-08-03T23:21:03.050Z,6.22
2023-08-03T23:23:30.334Z,6.50
2023-08-03T23:26:04.055Z,7.97
2023-08-03T23:28:30.389Z,7.07
2023-08-03T23:30:56.649Z,5.97
2023-08-03T23:33:23.053Z,7.30
2023-08-03T23:35:49.443Z,6.60
2023-08-03T23:38:15.791Z,5.93
2023-08-03T23:40:42.088Z,5.55
2023-08-03T23:43:08.425Z,5.00
2023-08-03T23:45:34.697Z,5.50
2023-08-03T23:48:01.140Z,5.00
2023-08-03T23:50:27.623Z,5.50
2023-08-03T23:52:53.901Z,4.90
2023-08-03T23:55:20.260Z,4.80
2023-08-03T23:57:46.564Z,5.25
